LATI Airport Information

Runway Information
Runway 17 Length 9022 ft width 148 ft Elevation 109 ft Threshold N/A Heading 174
Runway 35 Length 9022 ft Width 148 ft Elevation 126 ft Threshold N/A Heading 354
Airport Frequencies
Type ACC Name ACC Frequency 127.5 MHZ
Type APP Name APP Frequency 133.15 MHZ
Type TWR Name TWR Frequency 122.5 MHZ
Airport Navaids
Type NDB Name Tirana Frequency 290 KHZ
Type VOR-DME Name Tirana Frequency 117700 KHZ
Airport Weather Information & NOTAM
ADDS - METARS form results

(0556 UTC 04 December 2022)
Data provider http://aviationweather.gov/metar/data/
 
METAR text: LATI 040550Z 20014KT 9999 -RA FEW020 BKN060 13/08 Q1020 NOSIG
Conditions at: LATI (TIRANA , AL) observed 0550 UTC 04 December 2022
Temperature: 13.0°C (55°F)
Dewpoint: 8.0°C (46°F) [RH = 72%]
Pressure (altimeter): 30.12 inches Hg (1020.0 mb)
Winds: from the SSW (200 degrees) at 16 MPH (14 knots; 7.2 m/s)
Visibility: 6 or more miles (10+ km)
Ceiling: 6000 feet AGL
Clouds: few clouds at 2000 feet AGL
broken clouds at 6000 feet AGL
Weather: -RA  (light rain)

METAR text: LATI 040520Z 16004KT 130V220 9999 OVC086 15/07 Q1018 NOSIG
Conditions at: LATI (TIRANA , AL) observed 0520 UTC 04 December 2022
Temperature: 15.0°C (59°F)
Dewpoint: 7.0°C (45°F) [RH = 59%]
Pressure (altimeter): 30.06 inches Hg (1018.0 mb)
Winds: from the SSE (160 degrees) at 5 MPH (4 knots; 2.1 m/s)
Visibility: 6 or more miles (10+ km)
Ceiling: 8600 feet AGL
Clouds: overcast cloud deck at 8600 feet AGL
Weather: no significant weather observed at this time

Forecast for: LATI (TIRANA , AL)
Text: TAF LATI 040500Z 0406/0506 21008KT 9999 BKN080 TX17/0412Z TN10/0505Z
Forecast period: 0600 UTC 04 December 2022 to 0600 UTC 05 December 2022
Forecast type: FROM: standard forecast or significant change
Winds: from the SSW (210 degrees) at 9 MPH (8 knots; 4.1 m/s)
Visibility: 6 or more miles (10+ km)
Ceiling: 8000 feet AGL
Clouds: broken clouds at 8000 feet AGL
Weather: no significant weather forecast for this period
Text: TEMPO 0410/0416 15010KT RA SCT030 OVC060
Forecast period: 1000 to 1600 UTC 04 December 2022
Forecast type: TEMPORARY: The following changes expected for less than half the time period
Winds: from the SSE (150 degrees) at 12 MPH (10 knots; 5.1 m/s)
Visibility: missing
Ceiling: 6000 feet AGL
Clouds: scattered clouds at 3000 feet AGL
overcast cloud deck at 6000 feet AGL
Weather: RA  (moderate rain)